Time;durP1;ratioP1;P1;durP2;ratioP2;P2;SDS_P1;SDS_P2;PMS_P1;PMS_P2;Temp;Humidity;BMP_temperature;BMP_pressure;BME280_temperature;BME280_humidity;BME280_pressure;Samples;Min_cycle;Max_cycle;Signal;HPM_P1;HPM_P2
2022/08/26 00:02:08;;;;;;;25.30;14.10;;;;;;;20.33;84.34;98917.12;105825;1277;25232;-79
2022/08/26 00:04:35;;;;;;;27.50;14.60;;;;;;;20.36;84.27;98919.20;105656;1281;22540;-80
2022/08/26 00:07:04;;;;;;;22.50;12.50;;;;;;;20.40;84.24;98914.64;105732;1279;25193;-86
2022/08/26 00:09:31;;;;;;;19.10;13.30;;;;;;;20.41;84.19;98918.36;105657;1279;22620;-76
2022/08/26 00:11:58;;;;;;;20.20;13.10;;;;;;;20.41;84.33;98912.20;105669;1278;24225;-77
2022/08/26 00:14:26;;;;;;;20.70;12.90;;;;;;;20.43;84.27;98912.53;105751;1279;22583;-80
2022/08/26 00:16:54;;;;;;;26.50;14.10;;;;;;;20.43;84.13;98908.27;105694;1279;23723;-76
2022/08/26 00:19:25;;;;;;;20.90;13.40;;;;;;;20.33;83.76;98904.20;105481;1280;22578;-76
2022/08/26 00:21:53;;;;;;;27.70;14.60;;;;;;;20.22;83.71;98896.96;104140;1280;1671214;-83
2022/08/26 00:24:20;;;;;;;23.80;13.80;;;;;;;20.12;83.87;98893.06;105440;1278;22530;-83
2022/08/26 00:26:48;;;;;;;24.30;13.50;;;;;;;20.06;83.82;98886.94;105542;1278;22611;-82
2022/08/26 00:29:15;;;;;;;18.80;11.40;;;;;;;20.06;84.48;98885.58;105562;1280;22912;-81
2022/08/26 00:31:42;;;;;;;25.50;12.90;;;;;;;20.13;84.57;98885.21;105630;1278;22604;-82
2022/08/26 00:34:10;;;;;;;22.80;13.80;;;;;;;20.14;84.29;98885.45;105725;1280;25439;-80
2022/08/26 00:36:38;;;;;;;22.30;12.00;;;;;;;20.11;84.39;98884.20;105741;1278;23951;-80
2022/08/26 00:39:06;;;;;;;22.00;13.40;;;;;;;20.11;84.45;98881.77;105853;1278;22672;-77
2022/08/26 00:41:34;;;;;;;23.90;13.20;;;;;;;20.17;84.73;98882.89;105740;1277;25251;-77
2022/08/26 00:44:02;;;;;;;19.40;12.50;;;;;;;20.21;84.62;98881.78;105825;1278;24209;-84
2022/08/26 00:46:33;;;;;;;23.70;12.90;;;;;;;20.22;84.60;98884.45;105777;1279;24346;-84
2022/08/26 00:49:06;;;;;;;25.50;13.90;;;;;;;20.23;84.59;98886.02;105773;1279;23080;-84
2022/08/26 00:51:39;;;;;;;20.30;13.60;;;;;;;20.23;84.58;98885.30;105781;1279;22595;-77
2022/08/26 00:54:08;;;;;;;25.00;13.30;;;;;;;20.17;84.23;98879.80;105839;1278;22556;-82
2022/08/26 00:56:52;;;;;;;22.00;13.40;;;;;;;20.16;84.61;98877.28;105742;1278;22538;-84
2022/08/26 00:59:19;;;;;;;22.20;13.50;;;;;;;20.17;84.59;98878.79;105761;1279;22553;-84
2022/08/26 01:01:46;;;;;;;24.20;12.80;;;;;;;20.18;84.62;98875.40;105756;1277;25235;-78
2022/08/26 01:04:19;;;;;;;20.50;13.40;;;;;;;20.21;84.67;98875.44;105808;1277;24209;-78
2022/08/26 01:06:51;;;;;;;18.70;12.60;;;;;;;20.22;84.62;98866.92;105819;1278;22818;-82
2022/08/26 01:09:23;;;;;;;25.80;14.00;;;;;;;20.22;84.52;98864.45;105844;1277;25245;-78
2022/08/26 01:11:54;;;;;;;21.90;13.80;;;;;;;20.19;84.55;98866.61;105810;1277;22662;-84
2022/08/26 01:14:23;;;;;;;25.40;15.20;;;;;;;20.19;84.72;98869.70;105695;1279;22558;-84
2022/08/26 01:16:53;;;;;;;22.20;14.10;;;;;;;20.17;84.71;98867.17;105651;1277;25315;-79
2022/08/26 01:19:47;;;;;;;23.90;14.80;;;;;;;20.11;84.49;98873.83;105698;1281;25315;-77
2022/08/26 01:22:21;;;;;;;22.10;13.70;;;;;;;19.97;84.12;98873.45;105709;1278;22491;-84
2022/08/26 01:24:49;;;;;;;21.20;12.20;;;;;;;19.87;84.35;98870.66;105687;1279;24215;-83
2022/08/26 01:27:19;;;;;;;17.10;11.90;;;;;;;19.80;84.42;98877.56;105759;1280;22556;-84
2022/08/26 01:29:50;;;;;;;22.90;13.30;;;;;;;19.80;84.70;98876.32;105844;1278;24079;-82
2022/08/26 01:32:24;;;;;;;21.40;13.40;;;;;;;19.81;84.59;98876.23;105722;1278;24575;-84
2022/08/26 01:34:54;;;;;;;25.40;13.30;;;;;;;19.73;84.46;98878.15;105845;1278;22562;-82
2022/08/26 01:37:28;;;;;;;23.00;13.60;;;;;;;19.67;84.41;98877.14;105681;1280;22655;-84
2022/08/26 01:39:58;;;;;;;25.50;13.10;;;;;;;19.61;84.42;98874.52;105772;1280;24292;-82
2022/08/26 01:42:27;;;;;;;22.20;14.40;;;;;;;19.54;84.43;98872.89;105770;1280;25239;-81
2022/08/26 01:45:04;;;;;;;23.50;13.80;;;;;;;19.53;84.56;98873.02;105757;1280;22626;-78
2022/08/26 01:47:37;;;;;;;22.40;14.70;;;;;;;19.56;85.16;98868.10;105731;1278;22593;-77
2022/08/26 01:50:09;;;;;;;21.50;12.30;;;;;;;19.57;84.82;98866.27;105720;1278;23128;-77
2022/08/26 01:52:40;;;;;;;22.20;14.50;;;;;;;19.53;84.75;98863.78;105740;1280;24339;-78
2022/08/26 01:55:07;;;;;;;21.20;13.20;;;;;;;19.53;84.94;98866.30;105746;1278;24243;-78
2022/08/26 01:57:35;;;;;;;21.30;13.10;;;;;;;19.55;84.75;98864.56;105655;1281;24229;-77
2022/08/26 02:00:07;;;;;;;21.30;12.40;;;;;;;19.50;84.57;98866.15;105747;1279;22563;-84
2022/08/26 02:02:42;;;;;;;19.00;12.40;;;;;;;19.42;84.39;98867.69;105623;1280;25200;-81
2022/08/26 02:05:15;;;;;;;21.70;12.80;;;;;;;19.33;84.31;98868.65;105766;1280;22858;-82
2022/08/26 02:07:43;;;;;;;17.20;11.40;;;;;;;19.29;84.76;98867.10;105866;1278;22570;-83
2022/08/26 02:10:11;;;;;;;22.10;12.90;;;;;;;19.31;84.85;98869.28;105784;1278;22538;-83
2022/08/26 02:12:39;;;;;;;24.10;14.00;;;;;;;19.31;84.91;98867.90;105779;1278;23029;-80
2022/08/26 02:15:09;;;;;;;24.90;14.20;;;;;;;19.29;84.71;98867.00;105762;1278;22504;-79
2022/08/26 02:17:41;;;;;;;23.60;14.20;;;;;;;19.24;84.74;98864.15;105651;1281;25236;-79
2022/08/26 02:20:15;;;;;;;22.80;13.90;;;;;;;19.18;84.63;98863.17;105831;1278;25351;-79
2022/08/26 02:22:44;;;;;;;28.90;14.90;;;;;;;19.10;84.66;98864.55;105841;1278;22548;-81
2022/08/26 02:25:24;;;;;;;24.00;13.70;;;;;;;19.04;84.79;98862.77;105898;1278;25216;-81
2022/08/26 02:27:55;;;;;;;24.10;13.90;;;;;;;18.98;84.84;98856.65;105641;1281;22555;-84
2022/08/26 02:30:26;;;;;;;20.90;12.00;;;;;;;18.95;85.05;98858.16;105713;1281;24244;-84
2022/08/26 02:32:54;;;;;;;21.60;12.20;;;;;;;19.02;85.52;98860.63;105730;1280;22557;-81
2022/08/26 02:35:22;;;;;;;23.60;13.70;;;;;;;19.06;85.29;98863.41;105725;1281;23928;-82
2022/08/26 02:37:50;;;;;;;18.40;11.40;;;;;;;19.11;85.59;98865.71;105765;1281;22565;-79
2022/08/26 02:40:29;;;;;;;17.40;11.20;;;;;;;19.18;85.70;98863.55;105802;1281;22561;-82
2022/08/26 02:42:56;;;;;;;21.30;12.00;;;;;;;19.24;85.56;98859.38;105743;1278;25317;-78
2022/08/26 02:45:25;;;;;;;24.00;13.40;;;;;;;19.30;85.68;98859.75;105837;1278;25337;-77
2022/08/26 02:47:52;;;;;;;22.10;13.80;;;;;;;19.32;85.48;98860.35;105698;1281;22538;-84
2022/08/26 02:50:19;;;;;;;20.00;12.60;;;;;;;19.34;85.64;98860.48;105687;1281;25373;-77
2022/08/26 02:52:47;;;;;;;21.90;13.00;;;;;;;19.38;85.77;98858.20;105683;1281;22564;-80
2022/08/26 02:55:14;;;;;;;29.70;12.70;;;;;;;19.38;85.57;98861.02;105840;1278;25316;-74
2022/08/26 02:57:41;;;;;;;22.60;11.10;;;;;;;19.34;85.21;98859.98;105727;1278;25237;-81
2022/08/26 03:00:13;;;;;;;16.90;11.70;;;;;;;19.26;85.10;98858.44;105593;1284;25241;-78
2022/08/26 03:02:40;;;;;;;17.80;11.80;;;;;;;19.19;85.21;98857.11;105655;1281;24070;-77
2022/08/26 03:05:07;;;;;;;20.30;13.00;;;;;;;19.12;85.01;98860.98;105892;1278;25315;-77
2022/08/26 03:07:34;;;;;;;17.50;11.40;;;;;;;19.03;85.00;98858.00;105852;1278;25343;-77
2022/08/26 03:10:01;;;;;;;22.10;12.60;;;;;;;18.94;84.82;98856.71;105849;1278;22565;-84
2022/08/26 03:12:28;;;;;;;22.20;11.80;;;;;;;18.87;85.05;98855.55;105755;1278;25508;-78
2022/08/26 03:14:55;;;;;;;21.70;10.70;;;;;;;18.86;85.22;98852.48;105832;1278;22543;-82
2022/08/26 03:17:22;;;;;;;20.70;9.70;;;;;;;18.91;85.66;98851.75;105879;1278;25236;-80
2022/08/26 03:19:49;;;;;;;25.00;12.30;;;;;;;18.99;85.66;98847.67;105698;1278;25298;-81
2022/08/26 03:22:16;;;;;;;24.60;12.50;;;;;;;18.96;85.11;98845.42;105702;1278;22756;-84
2022/08/26 03:24:43;;;;;;;21.00;13.40;;;;;;;18.88;85.20;98843.83;105713;1278;22996;-84
2022/08/26 03:27:09;;;;;;;22.10;13.70;;;;;;;18.80;85.01;98842.37;105628;1278;22543;-82
2022/08/26 03:32:23;;;;;;;24.30;13.70;;;;;;;18.63;85.43;98838.03;105716;1281;23068;-81
2022/08/26 03:34:54;;;;;;;24.50;12.30;;;;;;;18.61;85.73;98838.83;105639;1281;24267;-81
2022/08/26 03:37:21;;;;;;;17.20;11.60;;;;;;;18.63;85.87;98840.66;105861;1278;25315;-78
2022/08/26 03:39:48;;;;;;;19.80;11.80;;;;;;;18.69;86.04;98839.92;105712;1278;22719;-81
2022/08/26 03:42:22;;;;;;;18.90;10.60;;;;;;;18.75;85.92;98840.73;105835;1278;24959;-82
2022/08/26 03:44:50;;;;;;;21.50;11.50;;;;;;;18.79;85.83;98841.06;105616;1278;22578;-78
2022/08/26 03:47:17;;;;;;;21.80;11.90;;;;;;;18.80;85.76;98838.71;105724;1278;24285;-77
2022/08/26 03:49:43;;;;;;;20.20;13.50;;;;;;;18.80;85.65;98835.48;105704;1281;24227;-85
2022/08/26 03:52:10;;;;;;;22.80;12.80;;;;;;;18.81;85.71;98835.19;105831;1277;26536;-83
2022/08/26 03:54:39;;;;;;;21.70;12.70;;;;;;;18.82;85.91;98835.36;105831;1278;25309;-82
2022/08/26 03:57:07;;;;;;;19.00;11.60;;;;;;;18.90;86.16;98836.92;105631;1278;23161;-79
2022/08/26 03:59:34;;;;;;;21.00;12.80;;;;;;;18.97;86.34;98833.21;105724;1281;26491;-81
2022/08/26 04:02:01;;;;;;;22.80;13.40;;;;;;;19.01;86.07;98832.02;105648;1278;24295;-82
2022/08/26 04:04:28;;;;;;;24.70;14.30;;;;;;;19.01;86.04;98829.75;105715;1278;25499;-77
2022/08/26 04:06:57;;;;;;;22.20;12.00;;;;;;;19.01;85.97;98834.19;105674;1281;25232;-77
2022/08/26 04:09:26;;;;;;;18.70;11.00;;;;;;;18.98;85.90;98838.73;105737;1281;25242;-76
2022/08/26 04:11:54;;;;;;;19.30;11.00;;;;;;;18.95;85.78;98839.20;105906;1277;22603;-82
2022/08/26 04:14:23;;;;;;;18.20;11.10;;;;;;;18.95;85.74;98839.96;105736;1278;25396;-78
2022/08/26 04:16:52;;;;;;;18.20;10.00;;;;;;;18.96;85.82;98842.75;105696;1277;22560;-84
2022/08/26 04:19:20;;;;;;;19.60;10.10;;;;;;;18.96;85.77;98837.70;105697;1278;22542;-83
2022/08/26 04:21:51;;;;;;;13.70;8.90;;;;;;;18.96;85.86;98837.48;105665;1281;25253;-78
2022/08/26 04:24:21;;;;;;;14.80;8.50;;;;;;;18.99;85.80;98838.20;105746;1278;24955;-84
2022/08/26 04:26:49;;;;;;;15.10;9.60;;;;;;;19.02;85.90;98837.70;105661;1278;22541;-81
2022/08/26 04:29:19;;;;;;;18.70;10.60;;;;;;;19.06;85.84;98836.18;105651;1277;22566;-84
2022/08/26 04:31:49;;;;;;;19.70;10.50;;;;;;;19.04;85.36;98833.34;105655;1278;22548;-84
2022/08/26 04:34:16;;;;;;;19.90;11.10;;;;;;;18.97;85.42;98835.47;105729;1278;23902;-85
2022/08/26 04:36:43;;;;;;;17.90;9.90;;;;;;;18.93;85.92;98836.01;105845;1277;24230;-77
2022/08/26 04:39:13;;;;;;;13.90;9.20;;;;;;;18.99;86.15;98836.79;105859;1278;24360;-78
2022/08/26 04:41:39;;;;;;;16.50;9.90;;;;;;;19.05;85.94;98831.78;105774;1278;25406;-79
2022/08/26 04:44:07;;;;;;;14.20;9.20;;;;;;;19.10;85.93;98830.73;105841;1277;25380;-78
2022/08/26 04:46:35;;;;;;;20.30;10.40;;;;;;;19.16;86.08;98830.69;105861;1278;26706;-83
2022/08/26 04:49:06;;;;;;;18.50;10.50;;;;;;;19.20;86.04;98832.71;105689;1278;25212;-78
2022/08/26 04:51:35;;;;;;;18.70;10.00;;;;;;;19.19;85.81;98834.20;105677;1278;25564;-85
2022/08/26 04:54:05;;;;;;;25.60;11.30;;;;;;;19.24;86.16;98834.77;105713;1277;22547;-82
2022/08/26 04:56:36;;;;;;;33.00;13.10;;;;;;;19.33;86.18;98832.09;105702;1278;25300;-79
2022/08/26 04:59:06;;;;;;;33.50;13.00;;;;;;;19.39;86.23;98832.49;105681;1278;22620;-81
2022/08/26 05:01:34;;;;;;;28.10;11.40;;;;;;;19.47;86.30;98831.42;105856;1278;23024;-77
2022/08/26 05:04:02;;;;;;;29.60;11.90;;;;;;;19.55;86.41;98831.31;105828;1277;22549;-79
2022/08/26 05:06:29;;;;;;;26.10;11.70;;;;;;;19.61;86.14;98830.98;105712;1278;25233;-79
2022/08/26 05:08:56;;;;;;;26.90;10.80;;;;;;;19.66;86.37;98830.15;105862;1278;25364;-77
2022/08/26 05:11:23;;;;;;;23.90;11.90;;;;;;;19.77;86.67;98831.84;105700;1278;24210;-79
2022/08/26 05:13:50;;;;;;;38.10;15.40;;;;;;;19.89;86.57;98839.15;105704;1277;22582;-84
2022/08/26 05:16:17;;;;;;;47.20;16.80;;;;;;;19.97;86.38;98841.12;105604;1277;22607;-82
2022/08/26 05:18:44;;;;;;;35.30;15.40;;;;;;;20.01;86.16;98840.36;105849;1277;25375;-81
2022/08/26 05:21:23;;;;;;;37.00;15.40;;;;;;;20.10;86.42;98840.39;105717;1278;25311;-79
2022/08/26 05:23:59;;;;;;;49.00;17.50;;;;;;;20.23;86.42;98841.41;105673;1278;23915;-82
2022/08/26 05:26:30;;;;;;;38.00;17.40;;;;;;;20.29;86.03;98842.46;105692;1277;22573;-86
2022/08/26 05:28:57;;;;;;;49.90;17.70;;;;;;;20.38;86.18;98843.30;105718;1278;25324;-78
2022/08/26 05:31:28;;;;;;;45.00;17.40;;;;;;;20.44;86.02;98844.48;105846;1277;25346;-78
2022/08/26 05:33:56;;;;;;;53.80;18.30;;;;;;;20.49;85.80;98845.05;105609;1277;22565;-85
2022/08/26 05:36:26;;;;;;;72.70;19.80;;;;;;;20.54;85.96;98842.73;105823;1278;22580;-82
2022/08/26 05:38:54;;;;;;;73.60;19.20;;;;;;;20.63;86.08;98844.15;105744;1278;25217;-79
2022/08/26 05:41:33;;;;;;;71.70;18.50;;;;;;;20.72;86.16;98841.25;105847;1277;25304;-77
2022/08/26 05:44:19;;;;;;;64.40;18.40;;;;;;;20.82;86.20;98839.41;105854;1277;24208;-78
2022/08/26 05:46:46;;;;;;;53.00;17.80;;;;;;;20.97;86.41;98836.38;105720;1277;24273;-81
2022/08/26 05:49:15;;;;;;;53.30;18.10;;;;;;;21.15;86.95;98831.80;105533;1277;25240;-78
2022/08/26 05:51:45;;;;;;;48.30;18.30;;;;;;;21.35;87.02;98827.85;105768;1278;25208;-79
2022/08/26 05:54:14;;;;;;;43.20;15.80;;;;;;;21.52;87.05;98825.73;105719;1278;22559;-81
2022/08/26 05:56:41;;;;;;;35.40;14.50;;;;;;;21.70;86.73;98821.97;105876;1277;22564;-80
2022/08/26 05:59:12;;;;;;;39.60;14.70;;;;;;;21.86;86.74;98823.21;105669;1280;22607;-78
2022/08/26 06:01:41;;;;;;;27.80;14.10;;;;;;;22.04;86.80;98822.23;105771;1278;22551;-84
2022/08/26 06:04:08;;;;;;;35.60;13.90;;;;;;;22.21;86.72;98818.41;105842;1277;25926;-81
2022/08/26 06:06:40;;;;;;;33.80;14.10;;;;;;;22.38;86.83;98820.01;105841;1277;25491;-81
2022/08/26 06:09:09;;;;;;;36.70;14.50;;;;;;;22.54;86.66;98815.98;105699;1280;24209;-77
2022/08/26 06:11:36;;;;;;;37.20;14.70;;;;;;;22.69;86.69;98814.27;105863;1277;22663;-81
2022/08/26 06:14:05;;;;;;;37.00;16.10;;;;;;;22.84;86.70;98814.02;105762;1278;22545;-84
2022/08/26 06:16:37;;;;;;;37.40;14.50;;;;;;;22.98;86.23;98813.06;105743;1277;24209;-84
2022/08/26 06:19:06;;;;;;;39.30;14.50;;;;;;;23.10;86.34;98812.16;105769;1280;22606;-80
2022/08/26 06:21:37;;;;;;;32.90;13.40;;;;;;;23.24;86.29;98813.45;105834;1277;22543;-84
2022/08/26 06:27:02;;;;;;;31.80;15.00;;;;;;;23.58;86.53;98812.86;105717;1277;25347;-79
2022/08/26 06:29:33;;;;;;;39.40;15.10;;;;;;;23.70;85.89;98811.17;105600;1280;22585;-78
2022/08/26 06:32:01;;;;;;;35.10;15.60;;;;;;;23.79;86.06;98811.50;105704;1279;22642;-82
2022/08/26 06:34:29;;;;;;;35.70;15.20;;;;;;;23.92;86.21;98814.85;105856;1276;22878;-84
2022/08/26 06:36:58;;;;;;;31.50;14.70;;;;;;;24.05;86.12;98819.10;105843;1277;22566;-83
2022/08/26 06:39:25;;;;;;;37.50;14.30;;;;;;;24.19;86.25;98817.79;105872;1277;24424;-83
2022/08/26 06:41:52;;;;;;;38.50;14.90;;;;;;;24.30;86.12;98818.13;105618;1278;24420;-83
2022/08/26 06:44:19;;;;;;;41.60;15.00;;;;;;;24.45;86.11;98817.20;105658;1278;24313;-79
2022/08/26 06:46:45;;;;;;;37.20;15.30;;;;;;;24.58;86.12;98817.35;105628;1277;22602;-85
2022/08/26 06:49:12;;;;;;;36.90;15.50;;;;;;;24.70;85.93;98818.14;105602;1278;25300;-82
2022/08/26 06:51:40;;;;;;;39.90;14.90;;;;;;;24.79;85.85;98818.30;105834;1277;22711;-85
2022/08/26 06:54:08;;;;;;;31.10;14.20;;;;;;;24.92;86.14;98816.91;105737;1278;25307;-77
2022/08/26 06:56:41;;;;;;;35.20;14.10;;;;;;;25.07;86.25;98819.27;105667;1280;25383;-80
2022/08/26 06:59:10;;;;;;;35.40;13.40;;;;;;;25.20;85.81;98819.16;105804;1278;22619;-77
2022/08/26 07:01:43;;;;;;;39.80;14.90;;;;;;;25.31;85.78;98819.40;105887;1277;24209;-81
2022/08/26 07:04:13;;;;;;;32.80;15.20;;;;;;;25.45;85.97;98817.55;105734;1277;25299;-79
2022/08/26 07:06:45;;;;;;;35.40;15.50;;;;;;;25.59;85.85;98820.59;105836;1277;25217;-77
2022/08/26 07:09:12;;;;;;;42.60;17.80;;;;;;;25.71;85.64;98819.52;105884;1276;22715;-84
2022/08/26 07:11:40;;;;;;;37.80;16.40;;;;;;;25.79;85.25;98818.27;105662;1278;24196;-84
2022/08/26 07:14:07;;;;;;;43.60;18.50;;;;;;;25.89;85.55;98815.88;105677;1279;22557;-80
2022/08/26 07:16:35;;;;;;;41.80;17.10;;;;;;;25.99;85.54;98814.64;105709;1279;25236;-79
2022/08/26 07:19:02;;;;;;;40.10;19.80;;;;;;;26.00;84.15;98813.49;105686;1278;25213;-80
2022/08/26 07:21:29;;;;;;;44.10;17.90;;;;;;;25.91;84.32;98810.21;105644;1278;22622;-80
2022/08/26 07:23:56;;;;;;;52.60;19.20;;;;;;;25.84;83.90;98805.54;105680;1278;24213;-85
2022/08/26 07:26:27;;;;;;;54.80;19.10;;;;;;;25.81;84.33;98804.50;105688;1278;22543;-82
2022/08/26 07:28:56;;;;;;;42.00;17.30;;;;;;;25.80;84.07;98804.09;105844;1277;22559;-84
2022/08/26 07:31:25;;;;;;;38.80;14.30;;;;;;;25.89;85.08;98801.83;105811;1277;24246;-79
2022/08/26 07:33:53;;;;;;;38.40;12.70;;;;;;;26.04;85.33;98802.58;105871;1278;22703;-84
2022/08/26 07:36:22;;;;;;;40.10;12.60;;;;;;;26.14;84.41;98801.61;105819;1277;25308;-77
2022/08/26 07:38:51;;;;;;;36.60;11.30;;;;;;;26.05;83.57;98803.84;105786;1277;24276;-78
2022/08/26 07:41:21;;;;;;;35.80;12.50;;;;;;;25.96;83.28;98807.65;105688;1276;25409;-78
2022/08/26 07:43:49;;;;;;;41.60;12.10;;;;;;;25.96;83.66;98803.07;105713;1278;24357;-83
2022/08/26 07:46:19;;;;;;;43.80;12.80;;;;;;;26.01;84.06;98805.06;105765;1278;24379;-77
2022/08/26 07:48:48;;;;;;;57.40;17.20;;;;;;;26.22;85.38;98804.40;105638;1278;22563;-85
2022/08/26 07:51:16;;;;;;;49.40;13.40;;;;;;;26.43;85.02;98805.04;105740;1279;22697;-85
2022/08/26 07:53:45;;;;;;;41.60;12.60;;;;;;;26.64;84.89;98804.05;105695;1278;25567;-86
2022/08/26 07:56:12;;;;;;;36.90;14.20;;;;;;;26.71;83.91;98801.92;105828;1278;24388;-82
2022/08/26 07:58:39;;;;;;;36.90;15.80;;;;;;;26.70;83.13;98801.89;105670;1278;22588;-79
2022/08/26 08:01:06;;;;;;;43.00;18.50;;;;;;;26.63;83.10;98800.25;105680;1278;25237;-79
2022/08/26 08:03:33;;;;;;;29.60;11.50;;;;;;;26.70;83.61;98798.44;105834;1277;25426;-80
2022/08/26 08:06:00;;;;;;;29.90;14.10;;;;;;;26.79;83.57;98795.84;105655;1278;24403;-86
2022/08/26 08:08:27;;;;;;;21.00;9.30;;;;;;;26.88;83.57;98797.81;105644;1281;23264;-79
2022/08/26 08:10:55;;;;;;;29.30;12.90;;;;;;;27.02;84.01;98799.66;105619;1278;25251;-79
2022/08/26 08:13:23;;;;;;;24.70;9.20;;;;;;;27.20;83.90;98799.96;105721;1278;22570;-83
2022/08/26 08:15:50;;;;;;;30.80;8.90;;;;;;;27.32;83.62;98797.40;105671;1277;25358;-80
2022/08/26 08:18:18;;;;;;;31.50;9.90;;;;;;;27.47;83.73;98795.19;105841;1277;25296;-79
2022/08/26 08:20:46;;;;;;;27.70;9.30;;;;;;;27.64;83.77;98797.14;105920;1277;22576;-85
2022/08/26 08:23:15;;;;;;;31.00;11.20;;;;;;;27.83;84.16;98798.81;105802;1277;22538;-84
2022/08/26 08:25:42;;;;;;;29.80;13.10;;;;;;;28.03;83.85;98798.59;105589;1278;22559;-82
2022/08/26 08:28:09;;;;;;;25.00;11.20;;;;;;;28.18;83.43;98799.25;105567;1278;25349;-82
2022/08/26 08:30:38;;;;;;;21.50;9.20;;;;;;;28.28;83.24;98802.17;105702;1277;22547;-80
2022/08/26 08:33:06;;;;;;;24.80;9.80;;;;;;;28.30;82.33;98801.86;105592;1278;25317;-81
2022/08/26 08:35:33;;;;;;;23.70;9.90;;;;;;;28.33;82.24;98801.84;105645;1277;25755;-81
2022/08/26 08:38:02;;;;;;;24.20;9.30;;;;;;;28.36;82.61;98797.10;105768;1277;24438;-87
2022/08/26 08:40:30;;;;;;;22.10;9.40;;;;;;;28.33;81.56;98796.33;105730;1278;24273;-81
2022/08/26 08:43:02;;;;;;;19.20;8.30;;;;;;;28.28;82.09;98793.59;105353;1278;24676;-80
2022/08/26 08:45:44;;;;;;;23.00;8.20;;;;;;;28.38;82.14;98792.13;105594;1277;25442;-79
2022/08/26 08:48:22;;;;;;;22.60;8.50;;;;;;;28.51;82.51;98789.92;105825;1278;22558;-83
2022/08/26 08:50:53;;;;;;;26.70;8.30;;;;;;;28.58;82.31;98787.25;105634;1278;22561;-81
2022/08/26 08:53:40;;;;;;;22.20;8.40;;;;;;;28.69;82.24;98782.90;105616;1280;22541;-84
2022/08/26 08:56:36;;;;;;;28.10;8.40;;;;;;;28.76;81.63;98785.55;105784;1277;22621;-80
2022/08/26 08:59:16;;;;;;;26.20;9.70;;;;;;;28.62;80.75;98787.02;105696;1278;25459;-80
2022/08/26 09:02:03;;;;;;;22.90;8.80;;;;;;;28.52;81.12;98785.14;105689;1276;25280;-85
2022/08/26 09:04:33;;;;;;;22.50;10.30;;;;;;;28.54;80.98;98784.73;105831;1276;24235;-82
2022/08/26 09:07:02;;;;;;;25.10;11.60;;;;;;;28.55;81.09;98784.58;105814;1277;22549;-82
2022/08/26 09:09:38;;;;;;;29.30;13.50;;;;;;;28.59;80.88;98781.46;105504;1277;22829;-79
2022/08/26 09:12:15;;;;;;;24.20;12.40;;;;;;;28.45;79.98;98782.80;105562;1278;25426;-83
2022/08/26 09:14:47;;;;;;;24.30;12.10;;;;;;;28.34;80.42;98785.39;105681;1277;22663;-82
2022/08/26 09:17:37;;;;;;;23.10;12.10;;;;;;;28.33;80.15;98787.00;105531;1277;25354;-79
2022/08/26 09:20:30;;;;;;;24.60;11.90;;;;;;;28.07;78.94;98785.95;105527;1278;25340;-80
2022/08/26 09:23:20;;;;;;;26.90;12.70;;;;;;;27.88;79.47;98783.05;105479;1279;25295;-79
2022/08/26 09:25:58;;;;;;;39.20;20.40;;;;;;;27.90;79.97;98779.91;105410;1277;24010;-80
2022/08/26 09:28:31;;;;;;;27.90;15.70;;;;;;;27.98;80.20;98781.26;105684;1278;22567;-81
2022/08/26 09:31:09;;;;;;;29.00;13.60;;;;;;;28.06;79.94;98784.32;105764;1278;24415;-80
2022/08/26 09:33:43;;;;;;;23.50;15.40;;;;;;;28.18;80.07;98783.95;105676;1277;22558;-80
2022/08/26 09:36:24;;;;;;;31.70;14.90;;;;;;;28.26;80.18;98779.72;105622;1277;24878;-80
2022/08/26 09:38:52;;;;;;;29.60;16.00;;;;;;;28.44;80.21;98780.95;105768;1277;25350;-78
2022/08/26 09:41:24;;;;;;;30.70;14.10;;;;;;;28.42;79.23;98778.43;105624;1277;24260;-82
2022/08/26 09:44:20;;;;;;;34.20;17.60;;;;;;;28.47;79.59;98781.24;105863;1277;22551;-84
2022/08/26 09:47:09;;;;;;;26.80;15.00;;;;;;;28.62;79.90;98770.77;105806;1277;22576;-80
2022/08/26 09:49:38;;;;;;;26.00;14.00;;;;;;;28.79;79.97;98774.97;105524;1278;22543;-81
2022/08/26 09:52:29;;;;;;;27.00;15.30;;;;;;;28.95;79.66;98770.40;105817;1276;23749;-79
2022/08/26 09:55:11;;;;;;;24.40;11.80;;;;;;;28.87;77.82;98766.48;105607;1278;22578;-81
2022/08/26 09:57:56;;;;;;;25.70;15.40;;;;;;;28.83;78.93;98766.54;105627;1276;25361;-80
2022/08/26 10:00:40;;;;;;;25.50;14.30;;;;;;;28.92;78.69;98764.94;105551;1277;24234;-83
2022/08/26 10:03:27;;;;;;;28.50;13.00;;;;;;;28.99;78.53;98764.46;105732;1278;25300;-80
2022/08/26 10:06:03;;;;;;;26.70;13.00;;;;;;;29.05;78.53;98764.60;105618;1279;22708;-80
2022/08/26 10:08:40;;;;;;;29.00;14.10;;;;;;;29.11;78.08;98764.42;105578;1276;24380;-83
2022/08/26 10:11:23;;;;;;;29.60;16.70;;;;;;;29.20;78.69;98757.76;105696;1276;22620;-81
2022/08/26 10:14:20;;;;;;;28.80;16.90;;;;;;;29.31;78.32;98756.33;105732;1277;22544;-81
2022/08/26 10:16:55;;;;;;;31.70;16.60;;;;;;;29.32;77.40;98752.23;105656;1277;25580;-80
2022/08/26 10:19:36;;;;;;;32.20;15.70;;;;;;;29.19;77.32;98747.57;105709;1277;25246;-80
2022/08/26 10:22:27;;;;;;;30.80;15.20;;;;;;;29.20;77.83;98743.20;105750;1276;25238;-81
2022/08/26 10:25:02;;;;;;;31.30;14.70;;;;;;;29.36;78.09;98744.56;105902;1277;25349;-80
2022/08/26 10:28:02;;;;;;;28.80;15.00;;;;;;;29.47;77.40;98740.64;105810;1277;25303;-80
2022/08/26 10:31:04;;;;;;;31.60;15.90;;;;;;;29.36;76.72;98734.77;105718;1277;22541;-80
2022/08/26 10:33:31;;;;;;;23.70;14.10;;;;;;;29.46;78.00;98731.27;105707;1277;23920;-83
2022/08/26 10:36:04;;;;;;;27.20;12.70;;;;;;;29.63;77.96;98726.89;105715;1276;24934;-81
2022/08/26 10:38:37;;;;;;;26.30;12.60;;;;;;;29.76;77.19;98727.70;105780;1277;23186;-81
2022/08/26 10:41:15;;;;;;;29.80;12.70;;;;;;;29.68;76.35;98722.98;105540;1276;22572;-93
2022/08/26 10:43:52;;;;;;;18.50;9.70;;;;;;;29.68;76.69;98724.56;105842;1276;24536;-80
2022/08/26 10:46:27;;;;;;;18.70;9.00;;;;;;;29.71;76.35;98720.17;105647;1276;25493;-84
2022/08/26 10:49:00;;;;;;;19.30;8.70;;;;;;;29.74;76.48;98718.59;105583;1276;23961;-82
2022/08/26 10:51:34;;;;;;;17.00;8.50;;;;;;;29.85;76.56;98715.20;105672;1276;24215;-85
2022/08/26 10:54:08;;;;;;;16.20;7.70;;;;;;;29.86;75.98;98710.48;105994;1276;22584;-79
2022/08/26 10:57:09;;;;;;;20.90;7.90;;;;;;;29.94;76.29;98709.09;105718;1277;25248;-80
2022/08/26 10:59:50;;;;;;;17.80;6.50;;;;;;;30.02;76.10;98702.09;105683;1276;22560;-80
2022/08/26 11:02:36;;;;;;;19.20;6.80;;;;;;;30.05;75.52;98704.80;105693;1277;24365;-86
2022/08/26 11:05:15;;;;;;;14.30;6.20;;;;;;;30.08;75.67;98701.29;105837;1276;23049;-83
2022/08/26 11:07:52;;;;;;;16.40;6.50;;;;;;;30.11;75.05;98701.82;105674;1278;22572;-81
2022/08/26 11:10:19;;;;;;;18.90;6.80;;;;;;;30.06;74.78;98700.73;105646;1278;23715;-81
2022/08/26 11:12:54;;;;;;;16.60;6.50;;;;;;;30.04;74.61;98696.85;105814;1276;26466;-81
2022/08/26 11:15:26;;;;;;;17.60;5.90;;;;;;;29.98;74.05;98694.13;105669;1276;25357;-81
2022/08/26 11:18:00;;;;;;;17.80;6.20;;;;;;;29.88;73.58;98695.88;105797;1276;22629;-80
2022/08/26 11:20:37;;;;;;;15.30;5.70;;;;;;;29.78;73.83;98688.08;105793;1279;25358;-82
2022/08/26 11:23:19;;;;;;;15.30;5.50;;;;;;;29.78;74.11;98687.23;105587;1279;22556;-96
2022/08/26 11:26:13;;;;;;;16.40;5.60;;;;;;;29.81;73.73;98688.19;105729;1277;25315;-83
2022/08/26 11:28:47;;;;;;;14.30;4.90;;;;;;;29.76;73.30;98683.58;105736;1277;22590;-81
2022/08/26 11:31:23;;;;;;;15.70;5.30;;;;;;;29.74;73.20;98678.03;105682;1276;22720;-82
2022/08/26 11:33:51;;;;;;;16.00;6.00;;;;;;;29.77;73.11;98679.44;105583;1279;22554;-81
2022/08/26 11:36:36;;;;;;;15.00;5.10;;;;;;;29.80;73.23;98673.02;105591;1277;25229;-80